createdAt,value
2023-02-25T00:00:14.587Z,14
2023-02-25T00:01:14.813Z,14
2023-02-25T00:02:17.240Z,13
2023-02-25T00:03:14.993Z,13
2023-02-25T00:04:14.195Z,13
2023-02-25T00:05:14.181Z,13
2023-02-25T00:06:14.993Z,13
2023-02-25T00:07:14.922Z,9
2023-02-25T00:08:14.469Z,9
2023-02-25T00:09:13.981Z,9
2023-02-25T00:10:14.976Z,9
2023-02-25T00:11:14.626Z,9
2023-02-25T00:12:14.422Z,13
2023-02-25T00:13:29.575Z,13
2023-02-25T00:14:14.674Z,13
2023-02-25T00:15:14.594Z,13
2023-02-25T00:16:14.429Z,13
2023-02-25T00:17:14.391Z,13
2023-02-25T00:18:15.071Z,13
2023-02-25T00:19:14.948Z,13
2023-02-25T00:20:14.663Z,13
2023-02-25T00:21:14.990Z,13
2023-02-25T00:22:14.650Z,11
2023-02-25T00:23:14.666Z,11
2023-02-25T00:24:28.055Z,11
2023-02-25T00:25:14.411Z,11
2023-02-25T00:26:14.629Z,11
2023-02-25T00:27:14.534Z,12
2023-02-25T00:28:14.343Z,12
2023-02-25T00:29:14.595Z,12
2023-02-25T00:30:14.846Z,12
2023-02-25T00:31:15.868Z,12
2023-02-25T00:33:14.727Z,13
2023-02-25T00:34:15.074Z,13
2023-02-25T00:35:14.510Z,13
2023-02-25T00:36:14.080Z,13
2023-02-25T00:37:15.326Z,12
2023-02-25T00:38:27.776Z,12
2023-02-25T00:39:14.668Z,12
2023-02-25T00:40:14.417Z,12
2023-02-25T00:41:14.296Z,12
2023-02-25T00:42:14.087Z,13
2023-02-25T00:43:14.665Z,13
2023-02-25T00:44:14.582Z,13
2023-02-25T00:45:14.418Z,13
2023-02-25T00:46:14.566Z,13
2023-02-25T00:47:14.934Z,12
2023-02-25T00:48:14.349Z,12
2023-02-25T00:49:31.628Z,12
2023-02-25T00:50:14.374Z,12
2023-02-25T00:51:14.028Z,12
2023-02-25T00:52:15.077Z,8
2023-02-25T00:53:14.902Z,8
2023-02-25T00:54:14.590Z,8
2023-02-25T00:55:14.273Z,8
2023-02-25T00:56:14.276Z,8
2023-02-25T00:57:14.168Z,13
2023-02-25T00:58:15.138Z,13
2023-02-25T00:59:14.654Z,13
2023-02-25T01:00:14.816Z,13
2023-02-25T01:01:15.011Z,13
2023-02-25T01:02:14.612Z,15
2023-02-25T01:03:14.472Z,15
2023-02-25T01:04:14.853Z,15
2023-02-25T01:05:15.543Z,15
2023-02-25T01:06:14.357Z,15
2023-02-25T01:08:14.668Z,11
2023-02-25T01:09:14.674Z,11
2023-02-25T01:10:14.454Z,11
2023-02-25T01:11:14.405Z,11
2023-02-25T01:12:14.503Z,14
2023-02-25T01:13:14.403Z,14
2023-02-25T01:14:14.725Z,14
2023-02-25T01:15:15.130Z,14
2023-02-25T01:16:14.876Z,14
2023-02-25T01:17:14.177Z,15
2023-02-25T01:18:14.909Z,15
2023-02-25T01:19:14.857Z,15
2023-02-25T01:20:14.513Z,15
2023-02-25T01:21:14.873Z,15
2023-02-25T01:22:14.530Z,13
2023-02-25T01:23:14.392Z,13
2023-02-25T01:24:14.056Z,13
2023-02-25T01:25:14.129Z,13
2023-02-25T01:26:14.354Z,13
2023-02-25T01:27:14.213Z,14
2023-02-25T01:28:14.624Z,14
2023-02-25T01:29:14.613Z,14
2023-02-25T01:30:14.423Z,14
2023-02-25T01:31:15.543Z,14
2023-02-25T01:33:14.642Z,15
2023-02-25T01:34:14.092Z,15
2023-02-25T01:35:15.085Z,15
2023-02-25T01:36:13.998Z,15
2023-02-25T01:37:14.770Z,12
2023-02-25T01:38:14.399Z,12
2023-02-25T01:40:14.266Z,12
2023-02-25T01:41:14.593Z,12
2023-02-25T01:42:14.642Z,15
2023-02-25T01:43:14.334Z,15
2023-02-25T01:44:13.959Z,15
2023-02-25T01:45:14.900Z,15
2023-02-25T01:46:14.459Z,15
2023-02-25T01:47:15.166Z,18
2023-02-25T01:48:14.881Z,18
2023-02-25T01:49:15.070Z,18
2023-02-25T01:50:14.374Z,18
2023-02-25T01:51:14.482Z,18
2023-02-25T01:52:14.289Z,13
2023-02-25T01:53:14.845Z,13
2023-02-25T01:54:15.109Z,13
2023-02-25T01:55:14.470Z,13
2023-02-25T01:56:14.429Z,13
2023-02-25T01:57:14.162Z,7
2023-02-25T01:58:14.932Z,7
2023-02-25T01:59:14.677Z,7
2023-02-25T02:00:14.555Z,7
2023-02-25T02:01:15.244Z,7
2023-02-25T02:02:15.218Z,14
2023-02-25T02:03:14.158Z,14
2023-02-25T02:04:15.085Z,14
2023-02-25T02:05:14.850Z,14
2023-02-25T02:06:14.031Z,14
2023-02-25T02:07:14.072Z,14
2023-02-25T02:08:14.785Z,14
2023-02-25T02:09:14.421Z,14
2023-02-25T02:10:14.273Z,14
2023-02-25T02:11:14.252Z,14
2023-02-25T02:12:13.824Z,12
2023-02-25T02:13:14.879Z,12
2023-02-25T02:14:14.311Z,12
2023-02-25T02:15:14.339Z,12
2023-02-25T02:16:14.910Z,12
2023-02-25T02:17:14.378Z,13
2023-02-25T02:18:14.214Z,13
2023-02-25T02:19:15.015Z,13
2023-02-25T02:20:14.790Z,13
2023-02-25T02:21:14.786Z,13
2023-02-25T02:22:14.495Z,13
2023-02-25T02:23:14.466Z,13
2023-02-25T02:24:14.204Z,13
2023-02-25T02:25:14.798Z,13
2023-02-25T02:26:14.921Z,13
2023-02-25T02:27:14.859Z,14
2023-02-25T02:28:14.566Z,14
2023-02-25T02:29:14.420Z,14
2023-02-25T02:30:14.388Z,14
2023-02-25T02:31:15.767Z,14
2023-02-25T02:32:15.835Z,12
2023-02-25T02:33:14.534Z,12
2023-02-25T02:34:14.450Z,12
2023-02-25T02:35:14.097Z,12
2023-02-25T02:36:14.812Z,12
2023-02-25T02:37:14.504Z,14
2023-02-25T02:38:14.199Z,14
2023-02-25T02:39:14.158Z,14
2023-02-25T02:40:14.992Z,14
2023-02-25T02:41:14.429Z,14
2023-02-25T02:42:14.137Z,13
2023-02-25T02:43:14.745Z,13
2023-02-25T02:44:14.529Z,13
2023-02-25T02:45:14.348Z,13
2023-02-25T02:46:14.862Z,13
2023-02-25T02:47:14.415Z,15
2023-02-25T02:48:14.108Z,15
2023-02-25T02:49:14.997Z,15
2023-02-25T02:50:14.706Z,15
2023-02-25T02:51:14.806Z,15
2023-02-25T02:52:14.533Z,13
2023-02-25T02:53:14.502Z,13
2023-02-25T02:54:14.302Z,13
2023-02-25T02:55:14.082Z,13
2023-02-25T02:56:13.897Z,13
2023-02-25T02:57:15.122Z,11
2023-02-25T02:58:14.664Z,11
2023-02-25T02:59:14.874Z,11
2023-02-25T03:00:14.280Z,11
2023-02-25T03:01:15.322Z,11
2023-02-25T03:02:14.687Z,13
2023-02-25T03:03:14.233Z,13
2023-02-25T03:04:14.841Z,13
2023-02-25T03:05:14.046Z,13
2023-02-25T03:06:14.361Z,13
2023-02-25T03:07:15.182Z,17
2023-02-25T03:08:14.609Z,17
2023-02-25T03:09:14.391Z,17
2023-02-25T03:10:14.241Z,17
2023-02-25T03:11:14.096Z,17
2023-02-25T03:12:14.935Z,15
2023-02-25T03:13:14.485Z,15
2023-02-25T03:14:14.350Z,15
2023-02-25T03:15:14.433Z,15
2023-02-25T03:16:14.764Z,15
2023-02-25T03:17:14.349Z,19
2023-02-25T03:18:14.811Z,19
2023-02-25T03:19:14.668Z,19
2023-02-25T03:20:14.606Z,19
2023-02-25T03:21:15.149Z,19
2023-02-25T03:22:14.818Z,14
2023-02-25T03:23:14.703Z,14
2023-02-25T03:24:14.513Z,14
2023-02-25T03:25:14.268Z,14
2023-02-25T03:26:14.526Z,14
2023-02-25T03:27:14.454Z,15
2023-02-25T03:28:14.260Z,15
2023-02-25T03:29:14.765Z,15
2023-02-25T03:30:14.794Z,15
2023-02-25T03:31:14.802Z,15
2023-02-25T03:32:15.057Z,14
2023-02-25T03:33:15.081Z,14
2023-02-25T03:34:14.709Z,14
2023-02-25T03:35:14.859Z,14
2023-02-25T03:36:14.418Z,14
2023-02-25T03:37:14.340Z,9
2023-02-25T03:38:14.282Z,9
2023-02-25T03:39:14.963Z,9
2023-02-25T03:40:14.851Z,9
2023-02-25T03:41:15.044Z,9
2023-02-25T03:42:14.853Z,15
2023-02-25T03:44:14.329Z,15
2023-02-25T03:45:14.387Z,15
2023-02-25T03:46:14.959Z,15
2023-02-25T03:47:15.055Z,15
2023-02-25T03:48:14.754Z,15
2023-02-25T03:49:14.607Z,15
2023-02-25T03:50:14.323Z,15
2023-02-25T03:51:14.472Z,15
2023-02-25T03:52:14.439Z,17
2023-02-25T03:53:14.156Z,17
2023-02-25T03:54:13.983Z,17
2023-02-25T03:55:15.103Z,17
2023-02-25T03:56:14.227Z,17
2023-02-25T03:57:15.055Z,12
2023-02-25T03:58:14.831Z,12
2023-02-25T03:59:14.704Z,12
2023-02-25T04:00:14.546Z,12
2023-02-25T04:01:16.991Z,12
2023-02-25T04:02:14.740Z,13
2023-02-25T04:03:14.137Z,13
2023-02-25T04:04:14.699Z,13
2023-02-25T04:05:14.803Z,13
2023-02-25T04:06:14.899Z,13
2023-02-25T04:07:14.742Z,15
2023-02-25T04:08:14.381Z,15
2023-02-25T04:09:14.237Z,15
2023-02-25T04:10:14.165Z,15
2023-02-25T04:11:14.314Z,15
2023-02-25T04:12:14.266Z,15
2023-02-25T04:13:14.986Z,15
2023-02-25T04:14:14.929Z,15
2023-02-25T04:15:14.581Z,15
2023-02-25T04:16:15.161Z,15
2023-02-25T04:17:14.447Z,11
2023-02-25T04:18:13.944Z,11
2023-02-25T04:19:14.849Z,11
2023-02-25T04:20:14.471Z,11
2023-02-25T04:21:13.937Z,11
2023-02-25T04:22:14.906Z,11
2023-02-25T04:23:14.662Z,11
2023-02-25T04:24:14.289Z,11
2023-02-25T04:25:14.112Z,11
2023-02-25T04:26:14.344Z,11
2023-02-25T04:27:14.961Z,8
2023-02-25T04:28:14.731Z,8
2023-02-25T04:29:15.040Z,8
2023-02-25T04:30:14.598Z,8
2023-02-25T04:31:15.704Z,8
2023-02-25T04:32:15.380Z,13
2023-02-25T04:33:13.965Z,13
2023-02-25T04:34:15.059Z,13
2023-02-25T04:35:14.782Z,13
2023-02-25T04:36:14.007Z,13
2023-02-25T04:37:14.086Z,17
2023-02-25T04:39:14.577Z,17
2023-02-25T04:40:14.430Z,17
2023-02-25T04:41:14.862Z,17
2023-02-25T04:42:14.728Z,17
2023-02-25T04:43:14.309Z,17
2023-02-25T04:44:14.380Z,17
2023-02-25T04:45:15.129Z,17
2023-02-25T04:46:14.697Z,17
2023-02-25T04:47:14.536Z,14
2023-02-25T04:48:14.194Z,14
2023-02-25T04:49:14.244Z,14
2023-02-25T04:50:14.998Z,14
2023-02-25T04:51:14.196Z,14
2023-02-25T04:52:15.006Z,14
2023-02-25T04:53:14.819Z,14
2023-02-25T04:54:14.513Z,14
2023-02-25T04:55:14.250Z,14
2023-02-25T04:56:14.447Z,14
2023-02-25T04:57:14.216Z,13
2023-02-25T04:58:15.025Z,13
2023-02-25T04:59:14.942Z,13
2023-02-25T05:00:14.806Z,13
2023-02-25T05:01:14.968Z,13
2023-02-25T05:03:14.921Z,17
2023-02-25T05:04:14.639Z,17
2023-02-25T05:05:14.930Z,17
2023-02-25T05:06:15.163Z,17
2023-02-25T05:07:14.472Z,14
2023-02-25T05:08:14.422Z,14
2023-02-25T05:10:15.025Z,14
2023-02-25T05:11:14.001Z,14
2023-02-25T05:12:15.004Z,15
2023-02-25T05:13:14.489Z,15
2023-02-25T05:14:14.620Z,15
2023-02-25T05:15:14.868Z,15
2023-02-25T05:16:14.578Z,15
2023-02-25T05:17:14.983Z,17
2023-02-25T05:18:14.952Z,17
2023-02-25T05:19:14.690Z,17
2023-02-25T05:20:14.852Z,17
2023-02-25T05:21:14.832Z,17
2023-02-25T05:22:14.449Z,21
2023-02-25T05:23:14.468Z,21
2023-02-25T05:24:14.314Z,21
2023-02-25T05:25:15.063Z,21
2023-02-25T05:26:14.224Z,21
2023-02-25T05:27:14.919Z,15
2023-02-25T05:29:14.262Z,15
2023-02-25T05:30:14.692Z,15
2023-02-25T05:31:15.209Z,15
2023-02-25T05:32:15.458Z,20
2023-02-25T05:33:15.440Z,20
2023-02-25T05:34:14.625Z,20
2023-02-25T05:35:14.612Z,20
2023-02-25T05:36:14.580Z,20
2023-02-25T05:37:14.290Z,20
2023-02-25T05:38:14.205Z,20
2023-02-25T05:39:15.049Z,20
2023-02-25T05:40:14.870Z,20
2023-02-25T05:41:14.074Z,20
2023-02-25T05:42:14.773Z,15
2023-02-25T05:43:14.890Z,15
2023-02-25T05:44:14.590Z,15
2023-02-25T05:45:14.232Z,15
2023-02-25T05:46:14.912Z,15
2023-02-25T05:47:15.041Z,14
2023-02-25T05:48:14.288Z,14
2023-02-25T05:49:14.115Z,14
2023-02-25T05:50:15.161Z,14
2023-02-25T05:51:14.507Z,14
2023-02-25T05:52:14.092Z,17
2023-02-25T05:53:14.938Z,17
2023-02-25T05:54:14.714Z,17
2023-02-25T05:55:14.382Z,17
2023-02-25T05:56:14.729Z,17
2023-02-25T05:57:14.438Z,14
2023-02-25T05:58:14.180Z,14
2023-02-25T05:59:13.876Z,14
2023-02-25T06:00:14.588Z,14
2023-02-25T06:01:14.013Z,14
2023-02-25T06:02:15.283Z,20
2023-02-25T06:03:15.093Z,20
2023-02-25T06:04:14.231Z,20
2023-02-25T06:05:14.789Z,20
2023-02-25T06:06:14.387Z,20
2023-02-25T06:07:14.200Z,14
2023-02-25T06:08:15.048Z,14
2023-02-25T06:09:14.756Z,14
2023-02-25T06:10:14.295Z,14
2023-02-25T06:11:15.048Z,14
2023-02-25T06:12:14.610Z,14
2023-02-25T06:13:14.318Z,14
2023-02-25T06:14:14.142Z,14
2023-02-25T06:15:14.084Z,14
2023-02-25T06:16:14.560Z,14
2023-02-25T06:17:15.154Z,21
2023-02-25T06:18:14.910Z,21
2023-02-25T06:19:14.669Z,21
2023-02-25T06:20:14.557Z,21
2023-02-25T06:21:14.454Z,21
2023-02-25T06:22:14.464Z,17
2023-02-25T06:23:14.343Z,17
2023-02-25T06:25:14.789Z,17
2023-02-25T06:26:15.072Z,17
2023-02-25T06:27:14.697Z,17
2023-02-25T06:28:14.475Z,17
2023-02-25T06:29:14.271Z,17
2023-02-25T06:30:14.062Z,17
2023-02-25T06:31:14.723Z,17
2023-02-25T06:32:15.314Z,20
2023-02-25T06:33:14.856Z,20
2023-02-25T06:34:14.507Z,20
2023-02-25T06:35:14.438Z,20
2023-02-25T06:36:14.709Z,20
2023-02-25T06:37:16.266Z,14
2023-02-25T06:38:14.333Z,14
2023-02-25T06:39:14.987Z,14
2023-02-25T06:40:14.790Z,14
2023-02-25T06:41:14.014Z,14
2023-02-25T06:42:14.956Z,17
2023-02-25T06:43:14.604Z,17
2023-02-25T06:44:15.829Z,17
2023-02-25T06:45:14.279Z,17
2023-02-25T06:46:15.363Z,17
2023-02-25T06:47:14.758Z,14
2023-02-25T06:48:14.367Z,14
2023-02-25T06:49:14.128Z,14
2023-02-25T06:50:15.408Z,14
2023-02-25T06:51:14.114Z,14
2023-02-25T06:52:14.088Z,15
2023-02-25T06:53:14.904Z,15
2023-02-25T06:54:14.799Z,15
2023-02-25T06:55:14.552Z,15
2023-02-25T06:56:14.686Z,15
2023-02-25T06:57:14.338Z,15
2023-02-25T06:58:15.662Z,15
2023-02-25T06:59:14.084Z,15
2023-02-25T07:00:14.952Z,15
2023-02-25T07:01:14.510Z,15
2023-02-25T07:02:15.003Z,25
2023-02-25T07:03:14.562Z,25
2023-02-25T07:04:14.754Z,25
2023-02-25T07:05:14.297Z,25
2023-02-25T07:06:14.554Z,25
2023-02-25T07:07:14.501Z,18
2023-02-25T07:08:14.173Z,18
2023-02-25T07:09:14.739Z,18
2023-02-25T07:10:14.621Z,18
2023-02-25T07:11:15.224Z,18
2023-02-25T07:12:15.119Z,23
2023-02-25T07:13:14.735Z,23
2023-02-25T07:14:14.480Z,23
2023-02-25T07:15:14.600Z,23
2023-02-25T07:16:15.793Z,23
2023-02-25T07:17:14.163Z,24
2023-02-25T07:18:15.041Z,24
2023-02-25T07:19:14.973Z,24
2023-02-25T07:20:14.689Z,24
2023-02-25T07:21:14.974Z,24
2023-02-25T07:22:14.623Z,19
2023-02-25T07:23:14.560Z,19
2023-02-25T07:24:14.294Z,19
2023-02-25T07:25:15.270Z,19
2023-02-25T07:26:14.085Z,19
2023-02-25T07:27:15.045Z,21
2023-02-25T07:28:14.500Z,21
2023-02-25T07:29:14.343Z,21
2023-02-25T07:30:14.031Z,21
2023-02-25T07:31:15.120Z,21
2023-02-25T07:32:15.581Z,23
2023-02-25T07:34:14.709Z,23
2023-02-25T07:35:14.662Z,23
2023-02-25T07:36:14.611Z,23
2023-02-25T07:37:14.486Z,21
2023-02-25T07:38:14.061Z,21
2023-02-25T07:39:15.137Z,21
2023-02-25T07:40:14.768Z,21
2023-02-25T07:41:14.191Z,21
2023-02-25T07:42:14.023Z,27
2023-02-25T07:43:14.815Z,27
2023-02-25T07:44:14.716Z,27
2023-02-25T07:45:14.854Z,27
2023-02-25T07:46:15.457Z,27
2023-02-25T07:47:14.843Z,24
2023-02-25T07:48:14.657Z,24
2023-02-25T07:49:14.086Z,24
2023-02-25T07:51:14.340Z,24
2023-02-25T07:52:14.213Z,19
2023-02-25T07:53:14.655Z,19
2023-02-25T07:54:14.558Z,19
2023-02-25T07:55:14.442Z,19
2023-02-25T07:56:14.689Z,19
2023-02-25T07:57:14.370Z,23
2023-02-25T07:59:14.918Z,23
2023-02-25T08:00:14.600Z,23
2023-02-25T08:01:14.501Z,23
2023-02-25T08:02:14.262Z,25
2023-02-25T08:03:15.026Z,25
2023-02-25T08:04:15.258Z,25
2023-02-25T08:05:14.210Z,25
2023-02-25T08:06:14.081Z,25
2023-02-25T08:07:14.855Z,20
2023-02-25T08:08:14.807Z,20
2023-02-25T08:09:14.552Z,20
2023-02-25T08:10:14.077Z,20
2023-02-25T08:11:13.930Z,20
2023-02-25T08:12:15.095Z,25
2023-02-25T08:13:14.801Z,25
2023-02-25T08:14:14.528Z,25
2023-02-25T08:15:14.271Z,25
2023-02-25T08:16:14.989Z,25
2023-02-25T08:17:14.369Z,19
2023-02-25T08:18:13.946Z,19
2023-02-25T08:19:14.911Z,19
2023-02-25T08:20:14.723Z,19
2023-02-25T08:21:15.648Z,19
2023-02-25T08:22:14.369Z,26
2023-02-25T08:23:14.538Z,26
2023-02-25T08:24:14.134Z,26
2023-02-25T08:25:15.009Z,26
2023-02-25T08:26:14.647Z,26
2023-02-25T08:27:14.445Z,28
2023-02-25T08:28:14.351Z,28
2023-02-25T08:29:14.890Z,28
2023-02-25T08:30:15.012Z,28
2023-02-25T08:31:15.134Z,28
2023-02-25T08:32:15.709Z,19
2023-02-25T08:33:15.088Z,19
2023-02-25T08:34:14.733Z,19
2023-02-25T08:35:14.636Z,19
2023-02-25T08:36:14.855Z,19
2023-02-25T08:37:14.353Z,18
2023-02-25T08:38:14.164Z,18
2023-02-25T08:39:14.957Z,18
2023-02-25T08:40:14.801Z,18
2023-02-25T08:41:14.829Z,18
2023-02-25T08:42:14.685Z,15
2023-02-25T08:43:14.404Z,15
2023-02-25T08:44:14.367Z,15
2023-02-25T08:45:14.944Z,15
2023-02-25T08:46:15.337Z,15
2023-02-25T08:47:14.839Z,15
2023-02-25T08:48:14.370Z,15
2023-02-25T08:49:14.138Z,15
2023-02-25T08:50:15.166Z,15
2023-02-25T08:51:15.203Z,15
2023-02-25T08:52:14.969Z,19
2023-02-25T08:53:14.662Z,19
2023-02-25T08:54:14.498Z,19
2023-02-25T08:55:14.205Z,19
2023-02-25T08:56:13.980Z,19
2023-02-25T08:57:14.777Z,30
2023-02-25T08:58:14.416Z,30
2023-02-25T08:59:14.645Z,30
2023-02-25T09:01:14.808Z,30
2023-02-25T09:02:14.701Z,19
2023-02-25T09:03:14.039Z,19
2023-02-25T09:04:15.364Z,19
2023-02-25T09:05:14.869Z,19
2023-02-25T09:06:14.721Z,19
2023-02-25T09:07:14.365Z,25
2023-02-25T09:08:14.126Z,25
2023-02-25T09:09:15.113Z,25
2023-02-25T09:10:14.776Z,25
2023-02-25T09:11:14.517Z,25
2023-02-25T09:12:14.096Z,20
2023-02-25T09:13:13.970Z,20
2023-02-25T09:14:15.036Z,20
2023-02-25T09:15:14.907Z,20
2023-02-25T09:16:14.357Z,20
2023-02-25T09:17:14.761Z,21
2023-02-25T09:18:14.452Z,21
2023-02-25T09:19:14.006Z,21
2023-02-25T09:20:14.852Z,21
2023-02-25T09:21:14.114Z,21
2023-02-25T09:22:14.703Z,21
2023-02-25T09:23:14.698Z,21
2023-02-25T09:24:14.495Z,21
2023-02-25T09:25:14.188Z,21
2023-02-25T09:26:14.713Z,21
2023-02-25T09:27:14.587Z,25
2023-02-25T09:28:14.084Z,25
2023-02-25T09:29:14.065Z,25
2023-02-25T09:30:15.153Z,25
2023-02-25T09:31:15.436Z,25
2023-02-25T09:32:15.271Z,23
2023-02-25T09:33:15.306Z,23
2023-02-25T09:34:14.152Z,23
2023-02-25T09:35:14.853Z,23
2023-02-25T09:36:14.159Z,23
2023-02-25T09:37:13.887Z,15
2023-02-25T09:38:14.703Z,15
2023-02-25T09:39:14.861Z,15
2023-02-25T09:40:14.347Z,15
2023-02-25T09:41:14.521Z,15
2023-02-25T09:42:14.923Z,19
2023-02-25T09:43:14.419Z,19
2023-02-25T09:44:14.478Z,19
2023-02-25T09:45:14.348Z,19
2023-02-25T09:46:15.098Z,19
2023-02-25T09:47:14.464Z,18
2023-02-25T09:48:14.492Z,18
2023-02-25T09:49:14.716Z,18
2023-02-25T09:50:14.561Z,18
2023-02-25T09:51:14.608Z,18
2023-02-25T09:52:14.396Z,24
2023-02-25T09:53:14.185Z,24
2023-02-25T09:55:14.616Z,24
2023-02-25T09:56:14.305Z,24
2023-02-25T09:57:14.914Z,20
2023-02-25T09:58:13.931Z,20
2023-02-25T09:59:14.159Z,20
2023-02-25T10:00:14.144Z,20
2023-02-25T10:01:14.509Z,20
2023-02-25T10:02:14.821Z,26
2023-02-25T10:03:15.179Z,26
2023-02-25T10:04:14.979Z,26
2023-02-25T10:05:14.903Z,26
2023-02-25T10:06:14.940Z,26
2023-02-25T10:07:14.446Z,23
2023-02-25T10:08:14.263Z,23
2023-02-25T10:09:14.053Z,23
2023-02-25T10:10:14.751Z,23
2023-02-25T10:11:14.883Z,23
2023-02-25T10:12:14.895Z,25
2023-02-25T10:13:15.627Z,25
2023-02-25T10:14:14.532Z,25
2023-02-25T10:15:14.261Z,25
2023-02-25T10:16:14.391Z,25
2023-02-25T10:17:14.364Z,23
2023-02-25T10:18:15.000Z,23
2023-02-25T10:19:14.741Z,23
2023-02-25T10:20:14.339Z,23
2023-02-25T10:21:14.106Z,23
2023-02-25T10:22:14.712Z,25
2023-02-25T10:23:14.592Z,25
2023-02-25T10:24:14.271Z,25
2023-02-25T10:25:14.324Z,25
2023-02-25T10:26:15.006Z,25
2023-02-25T10:27:14.737Z,21
2023-02-25T10:28:14.577Z,21
2023-02-25T10:29:14.484Z,21
2023-02-25T10:30:14.141Z,21
2023-02-25T10:31:15.520Z,21
2023-02-25T10:32:15.748Z,23
2023-02-25T10:33:14.122Z,23
2023-02-25T10:35:14.756Z,23
2023-02-25T10:36:14.180Z,23
2023-02-25T10:37:14.980Z,24
2023-02-25T10:38:14.952Z,24
2023-02-25T10:39:14.608Z,24
2023-02-25T10:41:14.996Z,24
2023-02-25T10:42:14.561Z,25
2023-02-25T10:43:14.495Z,25
2023-02-25T10:44:14.428Z,25
2023-02-25T10:45:15.606Z,25
2023-02-25T10:46:15.061Z,25
2023-02-25T10:47:14.458Z,25
2023-02-25T10:48:14.049Z,25
2023-02-25T10:50:14.749Z,25
2023-02-25T10:51:14.194Z,25
2023-02-25T10:52:14.211Z,21
2023-02-25T10:53:14.911Z,21
2023-02-25T10:54:14.786Z,21
2023-02-25T10:55:14.445Z,21
2023-02-25T10:56:14.672Z,21
2023-02-25T10:57:14.700Z,13
2023-02-25T10:58:14.069Z,13
2023-02-25T10:59:13.970Z,13
2023-02-25T11:00:14.897Z,13
2023-02-25T11:01:15.215Z,13
2023-02-25T11:02:14.500Z,25
2023-02-25T11:03:15.073Z,25
2023-02-25T11:04:14.741Z,25
2023-02-25T11:05:14.396Z,25
2023-02-25T11:06:14.354Z,25
2023-02-25T11:07:13.952Z,23
2023-02-25T11:08:15.024Z,23
2023-02-25T11:09:14.835Z,23
2023-02-25T11:10:14.640Z,23
2023-02-25T11:11:14.557Z,23
2023-02-25T11:12:14.648Z,17
2023-02-25T11:13:14.234Z,17
2023-02-25T11:14:14.049Z,17
2023-02-25T11:15:14.810Z,17
2023-02-25T11:16:14.287Z,17
2023-02-25T11:18:14.196Z,17
2023-02-25T11:19:14.144Z,17
2023-02-25T11:20:14.730Z,17
2023-02-25T11:21:14.804Z,17
2023-02-25T11:22:14.646Z,18
2023-02-25T11:23:14.399Z,18
2023-02-25T11:24:14.163Z,18
2023-02-25T11:25:15.195Z,18
2023-02-25T11:26:14.330Z,18
2023-02-25T11:27:14.882Z,20
2023-02-25T11:28:14.548Z,20
2023-02-25T11:29:14.486Z,20
2023-02-25T11:30:14.067Z,20
2023-02-25T11:31:15.425Z,20
2023-02-25T11:32:15.685Z,21
2023-02-25T11:33:15.684Z,21
2023-02-25T11:34:15.115Z,21
2023-02-25T11:36:14.763Z,21
2023-02-25T11:38:14.373Z,17
2023-02-25T11:39:14.424Z,17
2023-02-25T11:40:14.079Z,17
2023-02-25T11:41:14.153Z,17
2023-02-25T11:42:14.952Z,20
2023-02-25T11:43:14.818Z,20
2023-02-25T11:44:15.728Z,20
2023-02-25T11:45:14.286Z,20
2023-02-25T11:46:14.793Z,20
2023-02-25T11:47:14.417Z,13
2023-02-25T11:48:15.060Z,13
2023-02-25T11:49:14.794Z,13
2023-02-25T11:50:14.764Z,13
2023-02-25T11:51:14.619Z,13
2023-02-25T11:52:14.577Z,18
2023-02-25T11:53:14.444Z,18
2023-02-25T11:54:14.209Z,18
2023-02-25T11:56:14.332Z,18
2023-02-25T11:57:14.269Z,23
2023-02-25T11:58:14.858Z,23
2023-02-25T11:59:14.519Z,23
2023-02-25T12:00:14.463Z,23
2023-02-25T12:02:14.658Z,24
2023-02-25T12:03:14.624Z,24
2023-02-25T12:04:14.178Z,24
2023-02-25T12:05:14.125Z,24
2023-02-25T12:06:14.360Z,24
2023-02-25T12:07:14.221Z,21
2023-02-25T12:08:26.195Z,21
2023-02-25T12:09:14.854Z,21
2023-02-25T12:10:14.547Z,21
2023-02-25T12:11:14.542Z,21
2023-02-25T12:12:14.314Z,20
2023-02-25T12:13:13.953Z,20
2023-02-25T12:14:14.805Z,20
2023-02-25T12:15:14.596Z,20
2023-02-25T12:16:14.875Z,20
2023-02-25T12:17:14.514Z,20
2023-02-25T12:18:15.452Z,20
2023-02-25T12:20:14.952Z,20
2023-02-25T12:21:14.271Z,20
2023-02-25T12:22:15.053Z,23
2023-02-25T12:23:14.847Z,23
2023-02-25T12:24:14.673Z,23
2023-02-25T12:25:14.190Z,23
2023-02-25T12:26:14.497Z,23
2023-02-25T12:27:14.464Z,21
2023-02-25T12:28:13.877Z,21
2023-02-25T12:29:14.889Z,21
2023-02-25T12:30:14.258Z,21
2023-02-25T12:31:14.796Z,21
2023-02-25T12:32:15.204Z,19
2023-02-25T12:33:15.043Z,19
2023-02-25T12:34:14.705Z,19
2023-02-25T12:35:14.497Z,19
2023-02-25T12:36:14.810Z,19
2023-02-25T12:37:14.363Z,20
2023-02-25T12:38:14.160Z,20
2023-02-25T12:39:14.886Z,20
2023-02-25T12:40:14.745Z,20
2023-02-25T12:41:14.879Z,20
2023-02-25T12:42:14.816Z,21
2023-02-25T12:43:14.670Z,21
2023-02-25T12:44:14.411Z,21
2023-02-25T12:45:14.315Z,21
2023-02-25T12:46:14.954Z,21
2023-02-25T12:47:14.163Z,21
2023-02-25T12:48:14.221Z,21
2023-02-25T12:49:15.033Z,21
2023-02-25T12:50:14.748Z,21
2023-02-25T12:51:14.835Z,21
2023-02-25T12:52:17.125Z,27
2023-02-25T12:53:14.505Z,27
2023-02-25T12:54:14.268Z,27
2023-02-25T12:55:15.053Z,27
2023-02-25T12:56:13.970Z,27
2023-02-25T12:57:15.025Z,17
2023-02-25T12:58:16.561Z,17
2023-02-25T12:59:14.745Z,17
2023-02-25T13:00:14.433Z,17
2023-02-25T13:01:14.894Z,17
2023-02-25T13:02:14.142Z,19
2023-02-25T13:03:15.017Z,19
2023-02-25T13:04:15.125Z,19
2023-02-25T13:05:15.425Z,19
2023-02-25T13:06:14.892Z,19
2023-02-25T13:07:14.554Z,20
2023-02-25T13:08:14.125Z,20
2023-02-25T13:09:14.998Z,20
2023-02-25T13:10:15.153Z,20
2023-02-25T13:11:14.926Z,20
2023-02-25T13:12:24.244Z,26
2023-02-25T13:13:14.584Z,26
2023-02-25T13:14:14.390Z,26
2023-02-25T13:15:14.091Z,26
2023-02-25T13:16:14.897Z,26
2023-02-25T13:17:14.534Z,21
2023-02-25T13:18:14.253Z,21
2023-02-25T13:19:14.964Z,21
2023-02-25T13:20:14.960Z,21
2023-02-25T13:22:14.913Z,21
2023-02-25T13:23:14.808Z,21
2023-02-25T13:24:14.564Z,21
2023-02-25T13:25:14.294Z,21
2023-02-25T13:26:14.169Z,21
2023-02-25T13:27:14.911Z,28
2023-02-25T13:28:14.610Z,28
2023-02-25T13:29:14.577Z,28
2023-02-25T13:30:14.183Z,28
2023-02-25T13:31:14.960Z,28
2023-02-25T13:32:15.299Z,19
2023-02-25T13:33:14.371Z,19
2023-02-25T13:34:14.320Z,19
2023-02-25T13:35:14.890Z,19
2023-02-25T13:36:14.307Z,19
2023-02-25T13:37:15.078Z,14
2023-02-25T13:38:14.693Z,14
2023-02-25T13:39:14.371Z,14
2023-02-25T13:40:14.406Z,14
2023-02-25T13:41:14.653Z,14
2023-02-25T13:42:14.392Z,17
2023-02-25T13:43:14.077Z,17
2023-02-25T13:44:15.038Z,17
2023-02-25T13:45:14.722Z,17
2023-02-25T13:46:14.868Z,17
2023-02-25T13:47:14.640Z,17
2023-02-25T13:48:14.297Z,17
2023-02-25T13:49:14.071Z,17
2023-02-25T13:50:15.166Z,17
2023-02-25T13:51:14.182Z,17
2023-02-25T13:52:14.908Z,25
2023-02-25T13:53:14.649Z,25
2023-02-25T13:54:14.585Z,25
2023-02-25T13:55:14.254Z,25
2023-02-25T13:56:15.202Z,25
2023-02-25T13:57:14.474Z,18
2023-02-25T13:58:14.337Z,18
2023-02-25T13:59:14.250Z,18
2023-02-25T14:00:15.159Z,18
2023-02-25T14:01:14.464Z,18
2023-02-25T14:02:15.418Z,25
2023-02-25T14:03:14.840Z,25
2023-02-25T14:04:14.398Z,25
2023-02-25T14:05:14.296Z,25
2023-02-25T14:06:14.428Z,25
2023-02-25T14:07:14.192Z,33
2023-02-25T14:08:14.023Z,33
2023-02-25T14:09:14.568Z,33
2023-02-25T14:10:14.634Z,33
2023-02-25T14:11:14.867Z,33
2023-02-25T14:12:24.914Z,27
2023-02-25T14:13:14.426Z,27
2023-02-25T14:14:14.212Z,27
2023-02-25T14:15:13.998Z,27
2023-02-25T14:16:14.649Z,27
2023-02-25T14:17:15.045Z,28
2023-02-25T14:18:14.702Z,28
2023-02-25T14:19:14.459Z,28
2023-02-25T14:20:14.536Z,28
2023-02-25T14:21:14.569Z,28
2023-02-25T14:22:14.360Z,25
2023-02-25T14:23:14.235Z,25
2023-02-25T14:24:14.051Z,25
2023-02-25T14:25:14.807Z,25
2023-02-25T14:26:15.119Z,25
2023-02-25T14:27:14.732Z,19
2023-02-25T14:29:14.306Z,19
2023-02-25T14:30:14.229Z,19
2023-02-25T14:31:15.317Z,19
2023-02-25T14:32:14.980Z,23
2023-02-25T14:33:14.281Z,23
2023-02-25T14:34:14.764Z,23
2023-02-25T14:35:14.650Z,23
2023-02-25T14:36:15.072Z,23
2023-02-25T14:37:14.850Z,23
2023-02-25T14:38:14.748Z,23
2023-02-25T14:39:14.457Z,23
2023-02-25T14:40:14.437Z,23
2023-02-25T14:41:14.416Z,23
2023-02-25T14:42:14.158Z,18